sensor_id;sensor_type;location;lat;lon;timestamp;temperature;humidity
13898;DHT22;7019;50.766;4.474;2023-03-23T00:01:07;12.00;99.90
13898;DHT22;7019;50.766;4.474;2023-03-23T00:03:36;12.00;99.90
13898;DHT22;7019;50.766;4.474;2023-03-23T00:06:04;12.00;99.90
13898;DHT22;7019;50.766;4.474;2023-03-23T00:08:35;12.00;99.90
13898;DHT22;7019;50.766;4.474;2023-03-23T00:11:04;12.00;99.90
13898;DHT22;7019;50.766;4.474;2023-03-23T00:13:31;11.90;99.90
13898;DHT22;7019;50.766;4.474;2023-03-23T00:15:59;12.00;99.90
13898;DHT22;7019;50.766;4.474;2023-03-23T00:18:26;12.00;99.90
13898;DHT22;7019;50.766;4.474;2023-03-23T00:20:54;11.90;99.90
13898;DHT22;7019;50.766;4.474;2023-03-23T00:23:23;11.90;99.90
13898;DHT22;7019;50.766;4.474;2023-03-23T00:25:55;11.90;99.90
13898;DHT22;7019;50.766;4.474;2023-03-23T00:28:24;11.90;99.90
13898;DHT22;7019;50.766;4.474;2023-03-23T00:30:56;11.90;99.90
13898;DHT22;7019;50.766;4.474;2023-03-23T00:33:27;11.90;99.90
13898;DHT22;7019;50.766;4.474;2023-03-23T00:35:55;11.90;99.90
13898;DHT22;7019;50.766;4.474;2023-03-23T00:38:23;11.90;99.90
13898;DHT22;7019;50.766;4.474;2023-03-23T00:40:52;11.90;99.90
13898;DHT22;7019;50.766;4.474;2023-03-23T00:43:20;11.80;99.90
13898;DHT22;7019;50.766;4.474;2023-03-23T00:45:51;11.80;99.90
13898;DHT22;7019;50.766;4.474;2023-03-23T00:48:19;11.80;99.90
13898;DHT22;7019;50.766;4.474;2023-03-23T00:50:47;11.90;99.90
13898;DHT22;7019;50.766;4.474;2023-03-23T00:53:15;11.90;99.90
13898;DHT22;7019;50.766;4.474;2023-03-23T00:55:42;11.90;99.90
13898;DHT22;7019;50.766;4.474;2023-03-23T00:58:11;11.90;99.90
13898;DHT22;7019;50.766;4.474;2023-03-23T01:00:40;11.80;99.90
13898;DHT22;7019;50.766;4.474;2023-03-23T01:03:08;11.80;99.90
13898;DHT22;7019;50.766;4.474;2023-03-23T01:05:38;11.80;99.90
13898;DHT22;7019;50.766;4.474;2023-03-23T01:08:06;11.80;99.90
13898;DHT22;7019;50.766;4.474;2023-03-23T01:10:34;11.90;99.90
13898;DHT22;7019;50.766;4.474;2023-03-23T01:13:05;12.00;99.90
13898;DHT22;7019;50.766;4.474;2023-03-23T01:15:33;12.00;99.90
13898;DHT22;7019;50.766;4.474;2023-03-23T01:18:01;12.00;99.90
13898;DHT22;7019;50.766;4.474;2023-03-23T01:20:28;12.00;99.90
13898;DHT22;7019;50.766;4.474;2023-03-23T01:22:57;12.00;99.90
13898;DHT22;7019;50.766;4.474;2023-03-23T01:25:27;12.00;99.90
13898;DHT22;7019;50.766;4.474;2023-03-23T01:27:54;12.00;99.90
13898;DHT22;7019;50.766;4.474;2023-03-23T01:30:22;12.00;99.90
13898;DHT22;7019;50.766;4.474;2023-03-23T01:32:51;12.00;99.90
13898;DHT22;7019;50.766;4.474;2023-03-23T01:35:18;12.00;99.90
13898;DHT22;7019;50.766;4.474;2023-03-23T01:37:45;11.90;99.90
13898;DHT22;7019;50.766;4.474;2023-03-23T01:40:14;12.00;99.90
13898;DHT22;7019;50.766;4.474;2023-03-23T01:42:41;12.00;99.90
13898;DHT22;7019;50.766;4.474;2023-03-23T01:45:31;12.00;99.90
13898;DHT22;7019;50.766;4.474;2023-03-23T01:48:11;12.00;99.90
13898;DHT22;7019;50.766;4.474;2023-03-23T01:50:45;12.00;99.90
13898;DHT22;7019;50.766;4.474;2023-03-23T01:53:14;11.90;99.90
13898;DHT22;7019;50.766;4.474;2023-03-23T01:55:43;11.90;99.90
13898;DHT22;7019;50.766;4.474;2023-03-23T01:58:15;11.90;99.90
13898;DHT22;7019;50.766;4.474;2023-03-23T02:00:43;11.90;99.90
13898;DHT22;7019;50.766;4.474;2023-03-23T02:03:12;11.80;99.90
13898;DHT22;7019;50.766;4.474;2023-03-23T02:05:42;11.90;99.90
13898;DHT22;7019;50.766;4.474;2023-03-23T02:08:11;11.90;99.90
13898;DHT22;7019;50.766;4.474;2023-03-23T02:10:40;11.90;99.90
13898;DHT22;7019;50.766;4.474;2023-03-23T02:13:08;11.90;99.90
13898;DHT22;7019;50.766;4.474;2023-03-23T02:15:49;11.90;99.90
13898;DHT22;7019;50.766;4.474;2023-03-23T02:18:26;11.90;99.90
13898;DHT22;7019;50.766;4.474;2023-03-23T02:24:43;11.90;99.90
13898;DHT22;7019;50.766;4.474;2023-03-23T02:27:25;11.80;99.90
13898;DHT22;7019;50.766;4.474;2023-03-23T02:30:20;11.80;99.90
13898;DHT22;7019;50.766;4.474;2023-03-23T02:33:16;11.80;99.90
13898;DHT22;7019;50.766;4.474;2023-03-23T02:35:47;11.80;99.90
13898;DHT22;7019;50.766;4.474;2023-03-23T02:38:22;11.80;99.90
13898;DHT22;7019;50.766;4.474;2023-03-23T02:40:54;11.80;99.90
13898;DHT22;7019;50.766;4.474;2023-03-23T02:43:24;11.70;99.90
13898;DHT22;7019;50.766;4.474;2023-03-23T02:45:53;11.70;99.90
13898;DHT22;7019;50.766;4.474;2023-03-23T02:48:28;11.70;99.90
13898;DHT22;7019;50.766;4.474;2023-03-23T02:50:56;11.70;99.90
13898;DHT22;7019;50.766;4.474;2023-03-23T02:53:24;11.70;99.90
13898;DHT22;7019;50.766;4.474;2023-03-23T02:55:54;11.70;99.90
13898;DHT22;7019;50.766;4.474;2023-03-23T02:58:23;11.70;99.90
13898;DHT22;7019;50.766;4.474;2023-03-23T03:00:50;11.60;99.90
13898;DHT22;7019;50.766;4.474;2023-03-23T03:03:20;11.70;99.90
13898;DHT22;7019;50.766;4.474;2023-03-23T03:05:57;11.70;99.90
13898;DHT22;7019;50.766;4.474;2023-03-23T03:08:30;11.70;99.90
13898;DHT22;7019;50.766;4.474;2023-03-23T03:11:03;11.60;99.90
13898;DHT22;7019;50.766;4.474;2023-03-23T03:13:39;11.60;99.90
13898;DHT22;7019;50.766;4.474;2023-03-23T03:16:17;11.60;99.90
13898;DHT22;7019;50.766;4.474;2023-03-23T03:18:50;11.60;99.90
13898;DHT22;7019;50.766;4.474;2023-03-23T03:21:23;11.50;99.90
13898;DHT22;7019;50.766;4.474;2023-03-23T03:23:53;11.60;99.90
13898;DHT22;7019;50.766;4.474;2023-03-23T03:26:22;11.60;99.90
13898;DHT22;7019;50.766;4.474;2023-03-23T03:28:52;11.60;99.90
13898;DHT22;7019;50.766;4.474;2023-03-23T03:31:23;11.60;99.90
13898;DHT22;7019;50.766;4.474;2023-03-23T03:33:51;11.60;99.90
13898;DHT22;7019;50.766;4.474;2023-03-23T03:36:22;11.60;99.90
13898;DHT22;7019;50.766;4.474;2023-03-23T03:38:51;11.60;99.90
13898;DHT22;7019;50.766;4.474;2023-03-23T03:41:19;11.60;99.90
13898;DHT22;7019;50.766;4.474;2023-03-23T03:43:46;11.60;99.90
13898;DHT22;7019;50.766;4.474;2023-03-23T03:46:14;11.60;99.90
13898;DHT22;7019;50.766;4.474;2023-03-23T03:48:41;11.60;99.90
13898;DHT22;7019;50.766;4.474;2023-03-23T03:51:08;11.60;99.90
13898;DHT22;7019;50.766;4.474;2023-03-23T03:53:37;11.60;99.90
13898;DHT22;7019;50.766;4.474;2023-03-23T03:56:05;11.60;99.90
13898;DHT22;7019;50.766;4.474;2023-03-23T03:58:33;11.60;99.90
13898;DHT22;7019;50.766;4.474;2023-03-23T04:01:02;11.50;99.90
13898;DHT22;7019;50.766;4.474;2023-03-23T04:03:30;11.60;99.90
13898;DHT22;7019;50.766;4.474;2023-03-23T04:05:57;11.60;99.90
13898;DHT22;7019;50.766;4.474;2023-03-23T04:08:25;11.60;99.90
13898;DHT22;7019;50.766;4.474;2023-03-23T04:10:55;11.60;99.90
13898;DHT22;7019;50.766;4.474;2023-03-23T04:13:22;11.60;99.90
13898;DHT22;7019;50.766;4.474;2023-03-23T04:15:49;11.50;99.90
13898;DHT22;7019;50.766;4.474;2023-03-23T04:18:17;11.50;99.90
13898;DHT22;7019;50.766;4.474;2023-03-23T04:20:46;11.50;99.90
13898;DHT22;7019;50.766;4.474;2023-03-23T04:23:14;11.50;99.90
13898;DHT22;7019;50.766;4.474;2023-03-23T04:25:45;11.50;99.90
13898;DHT22;7019;50.766;4.474;2023-03-23T04:28:14;11.50;99.90
13898;DHT22;7019;50.766;4.474;2023-03-23T04:30:42;11.50;99.90
13898;DHT22;7019;50.766;4.474;2023-03-23T04:33:10;11.50;99.90
13898;DHT22;7019;50.766;4.474;2023-03-23T04:35:40;11.50;99.90
13898;DHT22;7019;50.766;4.474;2023-03-23T04:38:08;11.50;99.90
13898;DHT22;7019;50.766;4.474;2023-03-23T04:40:36;11.50;99.90
13898;DHT22;7019;50.766;4.474;2023-03-23T04:43:04;11.50;99.90
13898;DHT22;7019;50.766;4.474;2023-03-23T04:45:33;11.50;99.90
13898;DHT22;7019;50.766;4.474;2023-03-23T04:48:03;11.50;99.90
13898;DHT22;7019;50.766;4.474;2023-03-23T04:50:32;11.50;99.90
13898;DHT22;7019;50.766;4.474;2023-03-23T04:53:01;11.50;99.90
13898;DHT22;7019;50.766;4.474;2023-03-23T04:55:31;11.50;99.90
13898;DHT22;7019;50.766;4.474;2023-03-23T04:58:01;11.40;99.90
13898;DHT22;7019;50.766;4.474;2023-03-23T05:00:29;11.40;99.90
13898;DHT22;7019;50.766;4.474;2023-03-23T05:02:58;11.40;99.90
13898;DHT22;7019;50.766;4.474;2023-03-23T05:05:27;11.30;99.90
13898;DHT22;7019;50.766;4.474;2023-03-23T05:07:56;11.20;99.90
13898;DHT22;7019;50.766;4.474;2023-03-23T05:10:23;11.20;99.90
13898;DHT22;7019;50.766;4.474;2023-03-23T05:12:52;11.10;99.90
13898;DHT22;7019;50.766;4.474;2023-03-23T05:15:20;11.10;99.90
13898;DHT22;7019;50.766;4.474;2023-03-23T05:17:47;11.00;99.90
13898;DHT22;7019;50.766;4.474;2023-03-23T05:20:17;11.00;99.90
13898;DHT22;7019;50.766;4.474;2023-03-23T05:22:46;11.00;99.90
13898;DHT22;7019;50.766;4.474;2023-03-23T05:25:15;10.90;99.90
13898;DHT22;7019;50.766;4.474;2023-03-23T05:27:45;10.90;99.90
13898;DHT22;7019;50.766;4.474;2023-03-23T05:30:15;10.90;99.90
13898;DHT22;7019;50.766;4.474;2023-03-23T05:32:42;10.90;99.90
13898;DHT22;7019;50.766;4.474;2023-03-23T05:35:11;11.00;99.90
13898;DHT22;7019;50.766;4.474;2023-03-23T05:37:40;11.00;99.90
13898;DHT22;7019;50.766;4.474;2023-03-23T05:40:08;11.00;99.90
13898;DHT22;7019;50.766;4.474;2023-03-23T05:42:36;11.00;99.90
13898;DHT22;7019;50.766;4.474;2023-03-23T05:45:04;11.10;99.90
13898;DHT22;7019;50.766;4.474;2023-03-23T05:47:31;11.10;99.90
13898;DHT22;7019;50.766;4.474;2023-03-23T05:49:59;11.10;99.90
13898;DHT22;7019;50.766;4.474;2023-03-23T05:52:26;11.10;99.90
13898;DHT22;7019;50.766;4.474;2023-03-23T05:54:55;11.10;99.90
13898;DHT22;7019;50.766;4.474;2023-03-23T05:57:22;11.10;99.90
13898;DHT22;7019;50.766;4.474;2023-03-23T05:59:49;11.10;99.90
13898;DHT22;7019;50.766;4.474;2023-03-23T06:02:16;11.10;99.90
13898;DHT22;7019;50.766;4.474;2023-03-23T06:04:43;11.10;99.90
13898;DHT22;7019;50.766;4.474;2023-03-23T06:07:11;11.10;99.90
13898;DHT22;7019;50.766;4.474;2023-03-23T06:09:40;11.20;99.90
13898;DHT22;7019;50.766;4.474;2023-03-23T06:12:09;11.20;99.90
13898;DHT22;7019;50.766;4.474;2023-03-23T06:14:37;11.20;99.90
13898;DHT22;7019;50.766;4.474;2023-03-23T06:17:04;11.20;99.90
13898;DHT22;7019;50.766;4.474;2023-03-23T06:19:31;11.30;99.90
13898;DHT22;7019;50.766;4.474;2023-03-23T06:21:59;11.30;99.90
13898;DHT22;7019;50.766;4.474;2023-03-23T06:24:28;11.30;99.90
13898;DHT22;7019;50.766;4.474;2023-03-23T06:26:55;11.40;99.90
13898;DHT22;7019;50.766;4.474;2023-03-23T06:29:23;11.40;99.90
13898;DHT22;7019;50.766;4.474;2023-03-23T06:31:53;11.40;99.90
13898;DHT22;7019;50.766;4.474;2023-03-23T06:34:21;11.40;99.90
13898;DHT22;7019;50.766;4.474;2023-03-23T06:36:49;11.50;99.90
13898;DHT22;7019;50.766;4.474;2023-03-23T06:39:16;11.50;99.90
13898;DHT22;7019;50.766;4.474;2023-03-23T06:41:43;11.50;99.90
13898;DHT22;7019;50.766;4.474;2023-03-23T06:44:11;11.50;99.90
13898;DHT22;7019;50.766;4.474;2023-03-23T06:46:40;11.50;99.90
13898;DHT22;7019;50.766;4.474;2023-03-23T06:49:08;11.50;99.90
13898;DHT22;7019;50.766;4.474;2023-03-23T06:51:36;11.50;99.90
13898;DHT22;7019;50.766;4.474;2023-03-23T06:54:03;11.60;99.90
13898;DHT22;7019;50.766;4.474;2023-03-23T06:56:31;11.60;99.90
13898;DHT22;7019;50.766;4.474;2023-03-23T06:58:58;11.60;99.90
13898;DHT22;7019;50.766;4.474;2023-03-23T07:01:25;11.50;99.90
13898;DHT22;7019;50.766;4.474;2023-03-23T07:03:54;11.50;99.90
13898;DHT22;7019;50.766;4.474;2023-03-23T07:06:22;11.50;99.90
13898;DHT22;7019;50.766;4.474;2023-03-23T07:08:49;11.40;99.90
13898;DHT22;7019;50.766;4.474;2023-03-23T07:11:16;11.50;99.90
13898;DHT22;7019;50.766;4.474;2023-03-23T07:13:43;11.40;99.90
13898;DHT22;7019;50.766;4.474;2023-03-23T07:16:10;11.40;99.90
13898;DHT22;7019;50.766;4.474;2023-03-23T07:18:37;11.40;99.90
13898;DHT22;7019;50.766;4.474;2023-03-23T07:21:06;11.40;99.90
13898;DHT22;7019;50.766;4.474;2023-03-23T07:23:34;11.40;99.90
13898;DHT22;7019;50.766;4.474;2023-03-23T07:26:01;11.40;99.90
13898;DHT22;7019;50.766;4.474;2023-03-23T07:28:29;11.40;99.90
13898;DHT22;7019;50.766;4.474;2023-03-23T07:30:56;11.40;99.90
13898;DHT22;7019;50.766;4.474;2023-03-23T07:33:23;11.50;99.90
13898;DHT22;7019;50.766;4.474;2023-03-23T07:35:50;11.50;99.90
13898;DHT22;7019;50.766;4.474;2023-03-23T07:38:18;11.50;99.90
13898;DHT22;7019;50.766;4.474;2023-03-23T07:40:46;11.60;99.90
13898;DHT22;7019;50.766;4.474;2023-03-23T07:43:14;11.60;99.90
13898;DHT22;7019;50.766;4.474;2023-03-23T07:45:41;11.60;99.90
13898;DHT22;7019;50.766;4.474;2023-03-23T07:48:08;11.50;99.90
13898;DHT22;7019;50.766;4.474;2023-03-23T07:50:35;11.40;99.90
13898;DHT22;7019;50.766;4.474;2023-03-23T07:53:03;11.30;99.90
13898;DHT22;7019;50.766;4.474;2023-03-23T07:55:32;11.20;99.90
13898;DHT22;7019;50.766;4.474;2023-03-23T07:57:59;11.10;99.90
13898;DHT22;7019;50.766;4.474;2023-03-23T08:00:26;11.00;99.90
13898;DHT22;7019;50.766;4.474;2023-03-23T08:02:55;11.00;99.90
13898;DHT22;7019;50.766;4.474;2023-03-23T08:05:25;10.90;99.90
13898;DHT22;7019;50.766;4.474;2023-03-23T08:07:54;10.90;99.90
13898;DHT22;7019;50.766;4.474;2023-03-23T08:10:22;10.90;99.90
13898;DHT22;7019;50.766;4.474;2023-03-23T08:12:53;10.80;99.90
13898;DHT22;7019;50.766;4.474;2023-03-23T08:15:21;10.80;99.90
13898;DHT22;7019;50.766;4.474;2023-03-23T08:17:49;10.70;99.90
13898;DHT22;7019;50.766;4.474;2023-03-23T08:20:17;10.70;99.90
13898;DHT22;7019;50.766;4.474;2023-03-23T08:22:53;10.60;99.90
13898;DHT22;7019;50.766;4.474;2023-03-23T08:25:21;10.50;99.90
13898;DHT22;7019;50.766;4.474;2023-03-23T08:27:50;10.50;99.90
13898;DHT22;7019;50.766;4.474;2023-03-23T08:30:20;10.60;99.90
13898;DHT22;7019;50.766;4.474;2023-03-23T08:32:48;10.50;99.90
13898;DHT22;7019;50.766;4.474;2023-03-23T08:35:16;10.50;99.90
13898;DHT22;7019;50.766;4.474;2023-03-23T08:37:44;10.50;99.90
13898;DHT22;7019;50.766;4.474;2023-03-23T08:40:13;10.60;99.90
13898;DHT22;7019;50.766;4.474;2023-03-23T08:42:42;10.60;99.90
13898;DHT22;7019;50.766;4.474;2023-03-23T08:45:11;10.70;99.90
13898;DHT22;7019;50.766;4.474;2023-03-23T08:47:42;10.60;99.90
13898;DHT22;7019;50.766;4.474;2023-03-23T08:50:11;10.70;99.90
13898;DHT22;7019;50.766;4.474;2023-03-23T08:52:39;10.70;99.90
13898;DHT22;7019;50.766;4.474;2023-03-23T08:55:07;10.60;99.90
13898;DHT22;7019;50.766;4.474;2023-03-23T08:57:36;10.60;99.90
13898;DHT22;7019;50.766;4.474;2023-03-23T09:00:04;10.50;99.90
13898;DHT22;7019;50.766;4.474;2023-03-23T09:02:41;10.40;99.90
13898;DHT22;7019;50.766;4.474;2023-03-23T09:05:09;10.30;99.90
13898;DHT22;7019;50.766;4.474;2023-03-23T09:07:37;10.30;99.90
13898;DHT22;7019;50.766;4.474;2023-03-23T09:10:05;10.30;99.90
13898;DHT22;7019;50.766;4.474;2023-03-23T09:12:33;10.30;99.90
13898;DHT22;7019;50.766;4.474;2023-03-23T09:15:00;10.30;99.90
13898;DHT22;7019;50.766;4.474;2023-03-23T09:17:31;10.30;99.90
13898;DHT22;7019;50.766;4.474;2023-03-23T09:19:59;10.40;99.90
13898;DHT22;7019;50.766;4.474;2023-03-23T09:22:26;10.40;99.90
13898;DHT22;7019;50.766;4.474;2023-03-23T09:24:54;10.50;99.90
13898;DHT22;7019;50.766;4.474;2023-03-23T09:27:21;10.60;99.90
13898;DHT22;7019;50.766;4.474;2023-03-23T09:29:49;10.60;99.90
13898;DHT22;7019;50.766;4.474;2023-03-23T09:32:16;10.50;99.90
13898;DHT22;7019;50.766;4.474;2023-03-23T09:34:45;10.50;99.90
13898;DHT22;7019;50.766;4.474;2023-03-23T09:37:14;10.60;99.90
13898;DHT22;7019;50.766;4.474;2023-03-23T09:39:42;10.80;99.90
13898;DHT22;7019;50.766;4.474;2023-03-23T09:42:22;11.10;99.90
13898;DHT22;7019;50.766;4.474;2023-03-23T09:45:00;11.20;99.90
13898;DHT22;7019;50.766;4.474;2023-03-23T09:47:37;11.50;99.90
13898;DHT22;7019;50.766;4.474;2023-03-23T09:50:10;11.80;99.90
13898;DHT22;7019;50.766;4.474;2023-03-23T09:52:44;12.30;99.90
13898;DHT22;7019;50.766;4.474;2023-03-23T09:55:14;12.50;99.90
13898;DHT22;7019;50.766;4.474;2023-03-23T09:57:47;12.60;99.90
13898;DHT22;7019;50.766;4.474;2023-03-23T10:00:22;12.70;99.90
13898;DHT22;7019;50.766;4.474;2023-03-23T10:02:58;12.60;99.90
13898;DHT22;7019;50.766;4.474;2023-03-23T10:05:32;12.50;99.90
13898;DHT22;7019;50.766;4.474;2023-03-23T10:08:05;12.40;99.90
13898;DHT22;7019;50.766;4.474;2023-03-23T10:10:47;12.60;99.90
13898;DHT22;7019;50.766;4.474;2023-03-23T10:13:23;12.80;99.90
13898;DHT22;7019;50.766;4.474;2023-03-23T10:15:52;13.00;99.90
13898;DHT22;7019;50.766;4.474;2023-03-23T10:18:25;13.10;99.90
13898;DHT22;7019;50.766;4.474;2023-03-23T10:20:55;13.10;99.90
13898;DHT22;7019;50.766;4.474;2023-03-23T10:23:46;13.40;99.90
13898;DHT22;7019;50.766;4.474;2023-03-23T10:26:25;13.60;99.90
13898;DHT22;7019;50.766;4.474;2023-03-23T10:28:57;13.70;99.90
13898;DHT22;7019;50.766;4.474;2023-03-23T10:31:32;13.80;99.90
13898;DHT22;7019;50.766;4.474;2023-03-23T10:34:04;14.00;99.90
13898;DHT22;7019;50.766;4.474;2023-03-23T10:36:36;14.10;99.90
13898;DHT22;7019;50.766;4.474;2023-03-23T10:39:10;14.20;99.90
13898;DHT22;7019;50.766;4.474;2023-03-23T10:41:38;14.20;99.90
13898;DHT22;7019;50.766;4.474;2023-03-23T10:44:15;14.30;99.90
13898;DHT22;7019;50.766;4.474;2023-03-23T10:46:46;14.30;99.90
13898;DHT22;7019;50.766;4.474;2023-03-23T10:49:19;14.40;99.90
13898;DHT22;7019;50.766;4.474;2023-03-23T10:51:59;14.50;99.90
13898;DHT22;7019;50.766;4.474;2023-03-23T10:54:38;14.60;99.90
13898;DHT22;7019;50.766;4.474;2023-03-23T10:57:17;14.40;99.90
13898;DHT22;7019;50.766;4.474;2023-03-23T10:59:47;14.40;99.90
13898;DHT22;7019;50.766;4.474;2023-03-23T11:02:16;14.50;99.90
13898;DHT22;7019;50.766;4.474;2023-03-23T11:04:46;14.60;99.90
13898;DHT22;7019;50.766;4.474;2023-03-23T11:07:26;15.00;99.90
13898;DHT22;7019;50.766;4.474;2023-03-23T11:09:59;15.30;99.90
13898;DHT22;7019;50.766;4.474;2023-03-23T11:12:33;15.30;99.90
13898;DHT22;7019;50.766;4.474;2023-03-23T11:15:20;15.00;99.90
13898;DHT22;7019;50.766;4.474;2023-03-23T11:17:55;15.20;99.90
13898;DHT22;7019;50.766;4.474;2023-03-23T11:20:25;15.30;99.90
13898;DHT22;7019;50.766;4.474;2023-03-23T11:22:52;15.20;99.90
13898;DHT22;7019;50.766;4.474;2023-03-23T11:25:21;15.00;99.90
13898;DHT22;7019;50.766;4.474;2023-03-23T11:27:49;14.90;99.90
13898;DHT22;7019;50.766;4.474;2023-03-23T11:30:23;14.70;99.90
13898;DHT22;7019;50.766;4.474;2023-03-23T11:32:53;14.50;99.90
13898;DHT22;7019;50.766;4.474;2023-03-23T11:35:26;14.40;99.90
13898;DHT22;7019;50.766;4.474;2023-03-23T11:37:55;14.20;99.90
13898;DHT22;7019;50.766;4.474;2023-03-23T11:40:26;14.20;99.90
13898;DHT22;7019;50.766;4.474;2023-03-23T11:42:59;14.10;99.90
13898;DHT22;7019;50.766;4.474;2023-03-23T11:45:33;14.20;99.90
13898;DHT22;7019;50.766;4.474;2023-03-23T11:48:12;14.30;99.90
13898;DHT22;7019;50.766;4.474;2023-03-23T11:50:48;14.40;99.90
13898;DHT22;7019;50.766;4.474;2023-03-23T11:53:24;14.40;99.90
13898;DHT22;7019;50.766;4.474;2023-03-23T11:56:03;14.50;99.90
13898;DHT22;7019;50.766;4.474;2023-03-23T11:58:33;14.90;99.90
13898;DHT22;7019;50.766;4.474;2023-03-23T12:01:05;15.50;99.90
13898;DHT22;7019;50.766;4.474;2023-03-23T12:03:58;16.00;99.90
13898;DHT22;7019;50.766;4.474;2023-03-23T12:06:34;16.20;99.90
13898;DHT22;7019;50.766;4.474;2023-03-23T12:09:11;16.50;99.90
13898;DHT22;7019;50.766;4.474;2023-03-23T12:11:51;16.60;99.90
13898;DHT22;7019;50.766;4.474;2023-03-23T12:14:27;16.70;99.90
13898;DHT22;7019;50.766;4.474;2023-03-23T12:17:05;16.60;99.90
13898;DHT22;7019;50.766;4.474;2023-03-23T12:19:42;16.60;99.90
13898;DHT22;7019;50.766;4.474;2023-03-23T12:22:24;16.50;99.90
13898;DHT22;7019;50.766;4.474;2023-03-23T12:25:09;16.50;99.90
13898;DHT22;7019;50.766;4.474;2023-03-23T12:27:48;16.30;99.90
13898;DHT22;7019;50.766;4.474;2023-03-23T12:30:29;16.20;99.90
13898;DHT22;7019;50.766;4.474;2023-03-23T12:33:11;15.90;99.90
13898;DHT22;7019;50.766;4.474;2023-03-23T12:35:48;16.00;99.90
13898;DHT22;7019;50.766;4.474;2023-03-23T12:38:38;15.90;99.90
13898;DHT22;7019;50.766;4.474;2023-03-23T12:41:16;15.90;99.90
13898;DHT22;7019;50.766;4.474;2023-03-23T12:43:50;15.70;99.90
13898;DHT22;7019;50.766;4.474;2023-03-23T12:46:45;15.50;99.90
13898;DHT22;7019;50.766;4.474;2023-03-23T12:49:19;15.20;99.90
13898;DHT22;7019;50.766;4.474;2023-03-23T12:51:51;14.80;99.90
13898;DHT22;7019;50.766;4.474;2023-03-23T12:54:24;14.30;99.90
13898;DHT22;7019;50.766;4.474;2023-03-23T12:56:56;13.90;99.90
13898;DHT22;7019;50.766;4.474;2023-03-23T12:59:34;13.90;99.90
13898;DHT22;7019;50.766;4.474;2023-03-23T13:02:12;14.30;99.90
13898;DHT22;7019;50.766;4.474;2023-03-23T13:04:44;14.70;99.90
13898;DHT22;7019;50.766;4.474;2023-03-23T13:07:17;14.70;99.90
13898;DHT22;7019;50.766;4.474;2023-03-23T13:09:50;14.90;99.90
13898;DHT22;7019;50.766;4.474;2023-03-23T13:12:19;15.10;99.90
13898;DHT22;7019;50.766;4.474;2023-03-23T13:14:57;15.30;99.90
13898;DHT22;7019;50.766;4.474;2023-03-23T13:17:34;15.40;99.90
13898;DHT22;7019;50.766;4.474;2023-03-23T13:20:21;15.60;99.90
13898;DHT22;7019;50.766;4.474;2023-03-23T13:22:53;15.80;99.90
13898;DHT22;7019;50.766;4.474;2023-03-23T13:25:30;15.90;99.90
13898;DHT22;7019;50.766;4.474;2023-03-23T13:28:03;16.00;99.90
13898;DHT22;7019;50.766;4.474;2023-03-23T13:30:32;16.30;99.90
13898;DHT22;7019;50.766;4.474;2023-03-23T13:33:03;16.10;99.90
13898;DHT22;7019;50.766;4.474;2023-03-23T13:35:35;15.90;99.90
13898;DHT22;7019;50.766;4.474;2023-03-23T13:38:13;15.70;99.90
13898;DHT22;7019;50.766;4.474;2023-03-23T13:40:45;15.90;99.90
13898;DHT22;7019;50.766;4.474;2023-03-23T13:43:12;16.20;99.90
13898;DHT22;7019;50.766;4.474;2023-03-23T13:45:46;16.50;99.90
13898;DHT22;7019;50.766;4.474;2023-03-23T13:48:22;16.60;99.90
13898;DHT22;7019;50.766;4.474;2023-03-23T13:50:52;16.40;99.90
13898;DHT22;7019;50.766;4.474;2023-03-23T13:53:27;16.20;99.90
13898;DHT22;7019;50.766;4.474;2023-03-23T13:56:07;15.90;99.90
13898;DHT22;7019;50.766;4.474;2023-03-23T13:58:46;15.70;99.90
13898;DHT22;7019;50.766;4.474;2023-03-23T14:01:17;15.50;99.90
13898;DHT22;7019;50.766;4.474;2023-03-23T14:03:48;15.60;99.90
13898;DHT22;7019;50.766;4.474;2023-03-23T14:06:18;15.90;99.90
13898;DHT22;7019;50.766;4.474;2023-03-23T14:08:50;16.10;99.90
13898;DHT22;7019;50.766;4.474;2023-03-23T14:11:22;16.30;99.90
13898;DHT22;7019;50.766;4.474;2023-03-23T14:14:00;16.20;99.90
13898;DHT22;7019;50.766;4.474;2023-03-23T14:16:37;16.20;99.90
13898;DHT22;7019;50.766;4.474;2023-03-23T14:19:14;16.50;99.90
13898;DHT22;7019;50.766;4.474;2023-03-23T14:21:49;16.60;99.90
13898;DHT22;7019;50.766;4.474;2023-03-23T14:24:20;16.50;99.90
13898;DHT22;7019;50.766;4.474;2023-03-23T14:26:49;16.30;99.90
13898;DHT22;7019;50.766;4.474;2023-03-23T14:29:19;16.30;99.90
13898;DHT22;7019;50.766;4.474;2023-03-23T14:31:55;16.20;99.90
13898;DHT22;7019;50.766;4.474;2023-03-23T14:34:24;16.00;99.90
13898;DHT22;7019;50.766;4.474;2023-03-23T14:36:53;15.80;99.90
13898;DHT22;7019;50.766;4.474;2023-03-23T14:39:24;15.70;99.90
13898;DHT22;7019;50.766;4.474;2023-03-23T14:41:53;15.50;99.90
13898;DHT22;7019;50.766;4.474;2023-03-23T14:44:23;15.30;99.90
13898;DHT22;7019;50.766;4.474;2023-03-23T14:46:53;15.10;99.90
13898;DHT22;7019;50.766;4.474;2023-03-23T14:49:29;14.90;99.90
13898;DHT22;7019;50.766;4.474;2023-03-23T14:51:56;14.80;99.90
13898;DHT22;7019;50.766;4.474;2023-03-23T14:54:25;14.80;99.90
13898;DHT22;7019;50.766;4.474;2023-03-23T14:56:53;15.00;99.90
13898;DHT22;7019;50.766;4.474;2023-03-23T14:59:20;15.40;99.90
13898;DHT22;7019;50.766;4.474;2023-03-23T15:01:51;15.60;99.90
13898;DHT22;7019;50.766;4.474;2023-03-23T15:04:20;15.60;99.90
13898;DHT22;7019;50.766;4.474;2023-03-23T15:06:50;15.70;99.90
13898;DHT22;7019;50.766;4.474;2023-03-23T15:09:23;15.60;99.90
13898;DHT22;7019;50.766;4.474;2023-03-23T15:11:53;15.50;99.90
13898;DHT22;7019;50.766;4.474;2023-03-23T15:14:24;15.60;99.90
13898;DHT22;7019;50.766;4.474;2023-03-23T15:16:55;15.80;99.90
13898;DHT22;7019;50.766;4.474;2023-03-23T15:19:25;15.90;99.90
13898;DHT22;7019;50.766;4.474;2023-03-23T15:21:55;15.80;99.90
13898;DHT22;7019;50.766;4.474;2023-03-23T15:24:32;15.50;99.90
13898;DHT22;7019;50.766;4.474;2023-03-23T15:27:11;15.40;99.90
13898;DHT22;7019;50.766;4.474;2023-03-23T15:29:50;15.30;99.90
13898;DHT22;7019;50.766;4.474;2023-03-23T15:32:24;15.20;99.90
13898;DHT22;7019;50.766;4.474;2023-03-23T15:34:52;15.20;99.90
13898;DHT22;7019;50.766;4.474;2023-03-23T15:37:23;15.20;99.90
13898;DHT22;7019;50.766;4.474;2023-03-23T15:39:51;15.20;99.90
13898;DHT22;7019;50.766;4.474;2023-03-23T15:42:23;15.10;99.90
13898;DHT22;7019;50.766;4.474;2023-03-23T15:44:56;15.10;99.90
13898;DHT22;7019;50.766;4.474;2023-03-23T15:47:35;15.00;99.90
13898;DHT22;7019;50.766;4.474;2023-03-23T15:50:07;14.90;99.90
13898;DHT22;7019;50.766;4.474;2023-03-23T15:52:35;14.80;99.90
13898;DHT22;7019;50.766;4.474;2023-03-23T15:55:03;14.80;99.90
13898;DHT22;7019;50.766;4.474;2023-03-23T15:57:30;14.80;99.90
13898;DHT22;7019;50.766;4.474;2023-03-23T15:59:57;14.80;99.90
13898;DHT22;7019;50.766;4.474;2023-03-23T16:02:26;14.90;99.90
13898;DHT22;7019;50.766;4.474;2023-03-23T16:04:54;14.90;99.90
13898;DHT22;7019;50.766;4.474;2023-03-23T16:07:22;14.90;99.90
13898;DHT22;7019;50.766;4.474;2023-03-23T16:09:50;14.80;99.90
13898;DHT22;7019;50.766;4.474;2023-03-23T16:12:17;14.80;99.90